Time;durP1;ratioP1;P1;durP2;ratioP2;P2;SDS_P1;SDS_P2;PMS_P1;PMS_P2;Temp;Humidity;BMP_temperature;BMP_pressure;BME280_temperature;BME280_humidity;BME280_pressure;Samples;Min_cycle;Max_cycle;Signal;HPM_P1;HPM_P2
2023/10/04 00:02:19;;;;;;;2.35;1.23;;;19.70;76.90;;;;;;10482211;28;20718;-55
2023/10/04 00:07:20;;;;;;;2.78;1.25;;;19.70;77.00;;;;;;10491599;28;20037;-56
2023/10/04 00:12:21;;;;;;;3.50;1.50;;;19.70;77.60;;;;;;10473403;28;20025;-56
2023/10/04 00:17:22;;;;;;;2.00;1.52;;;19.70;76.90;;;;;;10491269;28;20071;-57
2023/10/04 00:22:23;;;;;;;2.30;1.42;;;19.70;76.90;;;;;;10490566;28;20047;-55
2023/10/04 00:27:24;;;;;;;2.55;1.40;;;19.70;77.00;;;;;;10490683;28;20587;-56
2023/10/04 00:32:26;;;;;;;3.90;1.45;;;19.70;76.90;;;;;;10490950;28;20461;-57
2023/10/04 00:37:27;;;;;;;2.60;1.30;;;19.60;76.90;;;;;;10490883;28;20029;-57
2023/10/04 00:42:28;;;;;;;3.42;1.63;;;19.70;76.90;;;;;;10490968;28;20028;-55
2023/10/04 00:47:31;;;;;;;2.38;1.27;;;19.60;76.90;;;;;;10490417;28;20033;-57
2023/10/04 00:52:32;;;;;;;3.17;1.65;;;19.60;76.80;;;;;;10472984;28;20407;-57
2023/10/04 00:57:34;;;;;;;3.05;1.40;;;19.60;76.80;;;;;;10489856;28;20033;-57
2023/10/04 01:02:36;;;;;;;2.15;1.25;;;19.60;76.80;;;;;;10473015;28;20025;-57
2023/10/04 01:07:39;;;;;;;1.63;1.08;;;19.60;76.70;;;;;;10472087;28;20111;-57
2023/10/04 01:12:41;;;;;;;2.55;1.15;;;19.60;76.80;;;;;;10472444;28;20024;-57
2023/10/04 01:17:42;;;;;;;2.67;1.33;;;19.60;76.80;;;;;;10489767;28;20048;-57
2023/10/04 01:22:43;;;;;;;2.63;1.75;;;19.60;76.90;;;;;;10476559;28;20052;-57
2023/10/04 01:27:44;;;;;;;2.55;1.20;;;19.60;76.80;;;;;;10489386;28;20029;-57
2023/10/04 01:32:45;;;;;;;3.85;1.60;;;19.60;76.80;;;;;;10495109;28;20032;-57
2023/10/04 01:37:46;;;;;;;1.60;1.00;;;19.60;76.80;;;;;;10478980;28;20105;-56
2023/10/04 01:42:47;;;;;;;1.83;1.10;;;19.60;76.80;;;;;;10497717;28;20074;-57
2023/10/04 01:47:49;;;;;;;3.90;1.52;;;19.60;76.80;;;;;;10497006;28;20090;-56
2023/10/04 01:52:50;;;;;;;2.58;1.35;;;19.60;76.70;;;;;;10465890;28;20487;-57
2023/10/04 01:57:52;;;;;;;2.13;1.80;;;19.60;76.70;;;;;;10496208;28;20027;-56
2023/10/04 02:02:53;;;;;;;3.42;1.52;;;19.60;76.70;;;;;;10496515;28;20027;-57
2023/10/04 02:07:56;;;;;;;7.20;2.22;;;19.60;76.70;;;;;;10477535;28;20090;-57
2023/10/04 02:12:57;;;;;;;2.63;1.40;;;19.50;76.70;;;;;;10496260;28;20033;-57
2023/10/04 02:17:58;;;;;;;2.58;1.17;;;19.50;76.70;;;;;;10495275;28;20044;-57
2023/10/04 02:23:00;;;;;;;5.05;1.33;;;19.50;76.70;;;;;;10495906;28;20024;-56
2023/10/04 02:28:06;;;;;;;3.33;1.17;;;19.50;76.70;;;;;;10495206;28;20768;-56
2023/10/04 02:33:13;;;;;;;3.15;1.10;;;19.50;76.70;;;;;;10488352;28;20488;-57
2023/10/04 02:38:19;;;;;;;2.53;1.63;;;19.50;76.60;;;;;;10494938;28;20029;-57
2023/10/04 02:43:27;;;;;;;2.38;1.20;;;19.50;76.60;;;;;;10494451;28;20052;-57
2023/10/04 02:48:30;;;;;;;2.45;1.08;;;19.50;76.70;;;;;;10477253;28;20036;-57
2023/10/04 02:53:31;;;;;;;2.22;1.15;;;19.50;76.60;;;;;;10494642;28;20166;-56
2023/10/04 02:58:34;;;;;;;2.50;1.23;;;19.50;76.70;;;;;;10493811;28;20505;-56
2023/10/04 03:03:35;;;;;;;2.10;0.90;;;19.50;76.60;;;;;;10494717;28;20486;-57
2023/10/04 03:08:37;;;;;;;2.25;1.55;;;19.50;76.60;;;;;;10493505;28;20035;-56
2023/10/04 03:13:38;;;;;;;2.45;1.27;;;19.50;76.70;;;;;;10493533;28;20039;-56
2023/10/04 03:18:39;;;;;;;2.28;1.42;;;19.50;76.60;;;;;;10493219;28;20043;-57
2023/10/04 03:23:40;;;;;;;2.28;1.45;;;19.50;76.60;;;;;;10493250;28;20033;-57
2023/10/04 03:28:41;;;;;;;1.83;1.30;;;19.40;76.60;;;;;;10492806;28;20484;-56
2023/10/04 03:33:45;;;;;;;4.50;1.35;;;19.50;76.70;;;;;;10491832;28;20036;-55
2023/10/04 03:38:46;;;;;;;4.32;1.73;;;19.50;77.20;;;;;;10489186;28;20040;-56
2023/10/04 03:43:47;;;;;;;3.55;1.50;;;19.50;77.00;;;;;;10489085;28;20035;-57
2023/10/04 03:48:49;;;;;;;1.65;1.08;;;19.60;76.80;;;;;;10488149;28;20484;-56
2023/10/04 03:53:51;;;;;;;2.60;1.20;;;19.50;76.80;;;;;;10487796;28;20033;-57
2023/10/04 03:58:51;;;;;;;2.70;1.17;;;19.60;76.80;;;;;;10487154;28;20507;-55
2023/10/04 04:03:52;;;;;;;2.05;1.30;;;19.60;76.80;;;;;;10488272;28;20016;-57
2023/10/04 04:08:55;;;;;;;2.55;1.38;;;19.60;76.70;;;;;;10489225;28;20507;-57
2023/10/04 04:13:57;;;;;;;2.47;1.50;;;19.60;76.70;;;;;;10491249;28;20089;-56
2023/10/04 04:18:59;;;;;;;1.98;1.27;;;19.50;76.70;;;;;;10488042;28;20111;-57
2023/10/04 04:24:00;;;;;;;2.47;1.15;;;19.50;76.90;;;;;;10488633;28;20024;-56
2023/10/04 04:29:01;;;;;;;2.33;1.05;;;19.50;76.90;;;;;;10488445;28;20036;-56
2023/10/04 04:34:03;;;;;;;2.70;1.08;;;19.40;76.80;;;;;;10470783;28;20043;-55
2023/10/04 04:39:05;;;;;;;2.33;1.15;;;19.40;76.90;;;;;;10487281;28;20804;-56
2023/10/04 04:44:08;;;;;;;2.28;1.27;;;19.40;76.80;;;;;;10469885;28;20495;-57
2023/10/04 04:49:10;;;;;;;2.65;1.30;;;19.40;76.80;;;;;;10488077;28;20027;-56
2023/10/04 04:54:12;;;;;;;1.92;0.95;;;19.40;76.80;;;;;;10487903;28;20102;-57
2023/10/04 04:59:14;;;;;;;2.78;1.10;;;19.40;76.80;;;;;;10487448;28;20028;-57
2023/10/04 05:04:18;;;;;;;2.55;1.35;;;19.40;76.80;;;;;;10487070;28;20021;-56
2023/10/04 05:09:19;;;;;;;4.93;1.77;;;19.40;76.80;;;;;;10495123;28;20056;-56
2023/10/04 05:14:20;;;;;;;6.30;1.70;;;19.50;76.60;;;;;;10496025;28;20052;-57
2023/10/04 05:19:20;;;;;;;3.40;1.40;;;19.60;76.50;;;;;;10493800;28;20028;-56
2023/10/04 05:24:21;;;;;;;4.90;1.17;;;19.60;76.60;;;;;;10495754;28;20479;-56
2023/10/04 05:29:22;;;;;;;5.75;1.65;;;19.70;76.50;;;;;;10494447;28;20050;-56
2023/10/04 05:34:23;;;;;;;7.75;1.92;;;19.70;76.70;;;;;;10493906;28;20391;-56
2023/10/04 05:39:24;;;;;;;10.50;2.50;;;19.70;76.70;;;;;;10492192;28;20035;-56
2023/10/04 05:44:24;;;;;;;5.78;1.75;;;19.70;76.60;;;;;;10496472;28;20032;-56
2023/10/04 05:49:26;;;;;;;7.90;2.13;;;19.70;76.70;;;;;;10495803;28;20043;-56
2023/10/04 05:54:27;;;;;;;9.85;2.25;;;19.70;76.70;;;;;;10496081;28;20024;-55
2023/10/04 05:59:27;;;;;;;6.10;2.22;;;19.80;76.90;;;;;;10492678;28;20029;-57
2023/10/04 06:04:28;;;;;;;11.55;2.10;;;19.70;76.70;;;;;;10494501;28;20397;-57
2023/10/04 06:09:32;;;;;;;9.60;2.38;;;19.70;76.60;;;;;;10495295;28;20036;-57
2023/10/04 06:14:32;;;;;;;10.45;2.83;;;19.60;76.70;;;;;;10495384;28;20348;-57
2023/10/04 06:19:33;;;;;;;6.25;1.70;;;19.60;76.60;;;;;;10475678;28;20472;-56
2023/10/04 06:24:34;;;;;;;5.68;1.92;;;19.50;76.70;;;;;;10495112;28;20686;-55
2023/10/04 06:29:35;;;;;;;13.85;2.72;;;19.50;76.70;;;;;;10494451;28;20086;-56
2023/10/04 06:34:36;;;;;;;5.18;1.90;;;19.50;76.80;;;;;;10494426;28;20032;-56
2023/10/04 06:39:36;;;;;;;5.25;1.80;;;19.40;76.70;;;;;;10493983;28;20043;-57
2023/10/04 06:44:37;;;;;;;7.28;2.13;;;19.40;76.70;;;;;;10494121;28;20383;-58
2023/10/04 06:49:38;;;;;;;6.65;1.88;;;19.40;76.60;;;;;;10493779;28;20039;-57
2023/10/04 06:54:40;;;;;;;4.72;1.55;;;19.40;76.60;;;;;;10493554;28;20046;-57
2023/10/04 06:59:41;;;;;;;3.83;1.50;;;19.40;76.70;;;;;;10492429;28;20107;-57
2023/10/04 07:04:42;;;;;;;7.43;2.53;;;19.40;76.50;;;;;;10493522;28;20043;-56
2023/10/04 07:09:43;;;;;;;5.85;1.77;;;19.40;76.50;;;;;;10492435;28;20031;-57
2023/10/04 07:14:45;;;;;;;6.45;2.35;;;19.40;76.70;;;;;;10492342;28;20464;-56
2023/10/04 07:19:45;;;;;;;6.18;2.30;;;19.40;76.50;;;;;;10490868;28;20029;-57
2023/10/04 07:24:46;;;;;;;5.28;2.08;;;19.40;76.70;;;;;;10491988;28;20032;-56
2023/10/04 07:29:47;;;;;;;8.88;3.22;;;19.50;76.80;;;;;;10490959;28;20029;-57
2023/10/04 07:34:48;;;;;;;6.13;2.45;;;19.50;76.80;;;;;;10491126;28;20033;-56
2023/10/04 07:39:48;;;;;;;6.28;2.30;;;19.50;76.90;;;;;;10473620;28;20024;-59
2023/10/04 07:44:49;;;;;;;6.75;2.03;;;19.50;76.90;;;;;;10491789;28;20032;-57
2023/10/04 07:49:50;;;;;;;11.68;2.65;;;19.50;77.00;;;;;;10490546;28;20028;-56
2023/10/04 07:54:53;;;;;;;5.15;1.90;;;19.50;77.10;;;;;;10491664;28;20040;-55
2023/10/04 07:59:54;;;;;;;13.13;3.75;;;19.50;77.10;;;;;;10488048;28;20028;-57
2023/10/04 08:04:55;;;;;;;6.18;2.28;;;19.50;76.80;;;;;;10491119;28;20017;-57
2023/10/04 08:09:58;;;;;;;9.90;2.70;;;19.50;76.80;;;;;;10490672;28;20384;-59
2023/10/04 08:15:01;;;;;;;8.38;2.63;;;19.50;76.60;;;;;;10490539;28;20051;-57
2023/10/04 08:20:03;;;;;;;5.97;3.05;;;19.50;76.50;;;;;;10490125;28;20033;-57
2023/10/04 08:25:05;;;;;;;12.23;4.15;;;19.50;76.30;;;;;;10490409;28;20052;-56
2023/10/04 08:30:07;;;;;;;5.10;2.00;;;19.50;76.50;;;;;;10489966;28;20032;-59
2023/10/04 08:35:24;;;;;;;8.32;2.50;;;19.50;76.30;;;;;;10490429;28;20028;-57
2023/10/04 08:40:27;;;;;;;7.18;2.28;;;19.60;76.40;;;;;;10489495;28;20040;-57
2023/10/04 08:45:29;;;;;;;11.75;3.72;;;19.60;76.50;;;;;;10489089;28;20031;-58
2023/10/04 08:50:40;;;;;;;8.60;3.28;;;19.60;76.70;;;;;;10489166;28;20029;-57
2023/10/04 08:55:48;;;;;;;6.78;2.47;;;19.70;76.20;;;;;;10472397;28;20074;-58
2023/10/04 09:00:51;;;;;;;7.88;2.40;;;19.60;75.90;;;;;;10480362;28;20506;-58
2023/10/04 09:05:54;;;;;;;5.65;2.25;;;19.50;76.30;;;;;;10471530;28;20036;-57
2023/10/04 09:10:55;;;;;;;6.45;2.38;;;19.60;76.40;;;;;;10471564;28;20040;-58
2023/10/04 09:15:56;;;;;;;5.28;2.25;;;19.60;76.40;;;;;;10471274;28;20047;-58
2023/10/04 09:21:13;;;;;;;6.30;2.40;;;19.60;76.40;;;;;;10488612;28;20036;-58
2023/10/04 09:26:17;;;;;;;6.15;3.15;;;19.50;76.30;;;;;;10473780;28;20090;-58
2023/10/04 09:31:19;;;;;;;4.75;1.98;;;19.60;76.30;;;;;;10469717;28;20035;-58
2023/10/04 09:36:38;;;;;;;10.73;2.75;;;19.60;76.30;;;;;;10460256;28;20051;-57
2023/10/04 09:41:41;;;;;;;9.50;4.00;;;19.60;76.20;;;;;;10482400;28;20464;-58
2023/10/04 09:47:02;;;;;;;6.80;2.55;;;19.70;76.10;;;;;;10470878;28;20476;-59
2023/10/04 09:52:12;;;;;;;9.48;2.80;;;19.70;76.00;;;;;;10472238;28;20028;-57
2023/10/04 09:57:16;;;;;;;11.98;2.70;;;19.70;76.00;;;;;;10495833;28;20055;-57
2023/10/04 10:02:21;;;;;;;11.50;2.63;;;19.70;76.30;;;;;;10478012;28;20025;-57
2023/10/04 10:07:25;;;;;;;12.88;2.75;;;19.70;76.40;;;;;;10495661;28;20467;-57
2023/10/04 10:12:30;;;;;;;8.02;3.13;;;19.60;76.50;;;;;;10478730;28;20029;-57
2023/10/04 10:17:33;;;;;;;8.45;2.47;;;19.70;76.50;;;;;;10478548;28;20036;-57
2023/10/04 10:22:34;;;;;;;16.70;4.43;;;19.70;76.50;;;;;;10495805;28;20024;-57
2023/10/04 10:27:36;;;;;;;13.45;3.88;;;19.60;76.40;;;;;;10477659;28;20033;-58
2023/10/04 10:32:50;;;;;;;11.88;3.55;;;19.70;76.40;;;;;;10495038;28;20115;-56
2023/10/04 10:37:51;;;;;;;7.47;2.67;;;19.70;76.50;;;;;;10495390;28;20124;-57
2023/10/04 10:43:11;;;;;;;8.77;3.30;;;19.80;76.50;;;;;;10476990;28;20488;-57
2023/10/04 10:48:12;;;;;;;6.90;2.63;;;19.80;76.40;;;;;;10476977;28;20044;-57
2023/10/04 10:53:14;;;;;;;8.75;2.63;;;19.80;76.40;;;;;;10494235;28;20032;-57
2023/10/04 10:58:14;;;;;;;7.68;2.85;;;19.90;76.60;;;;;;10476731;28;20566;-56
2023/10/04 11:03:19;;;;;;;6.80;2.22;;;19.90;76.50;;;;;;10493866;28;20028;-56
2023/10/04 11:08:20;;;;;;;9.15;2.65;;;20.00;79.20;;;;;;10475768;28;20032;-58
2023/10/04 11:13:23;;;;;;;10.70;4.35;;;20.10;78.80;;;;;;10493258;28;20480;-58
2023/10/04 11:18:28;;;;;;;8.05;4.47;;;20.10;77.00;;;;;;10493583;28;20496;-59
2023/10/04 11:23:29;;;;;;;8.27;3.00;;;19.90;77.40;;;;;;10493273;28;20028;-58
2023/10/04 11:28:30;;;;;;;15.65;3.70;;;20.00;76.90;;;;;;10493013;28;20024;-58
2023/10/04 11:33:59;;;;;;;7.93;4.13;;;20.00;76.20;;;;;;10475017;28;20037;-58
2023/10/04 11:38:59;;;;;;;13.52;4.32;;;19.90;73.50;;;;;;10492591;28;20028;-57
2023/10/04 11:44:03;;;;;;;17.13;4.88;;;19.80;73.30;;;;;;10492461;28;20086;-57
2023/10/04 11:49:11;;;;;;;12.02;5.13;;;19.80;73.10;;;;;;10492459;28;20617;-58
2023/10/04 11:54:12;;;;;;;13.18;4.45;;;19.90;73.90;;;;;;10489971;28;20055;-57
2023/10/04 11:59:16;;;;;;;14.52;4.53;;;20.00;74.30;;;;;;10474240;28;20051;-57
2023/10/04 12:04:17;;;;;;;11.35;4.63;;;20.00;74.00;;;;;;10491988;28;20029;-57
2023/10/04 12:09:20;;;;;;;11.73;4.20;;;20.00;74.10;;;;;;10474079;28;20067;-57
2023/10/04 12:14:22;;;;;;;9.27;3.42;;;19.90;74.20;;;;;;10490581;28;20131;-57
2023/10/04 12:19:23;;;;;;;11.77;3.90;;;19.90;74.30;;;;;;10491381;28;20604;-57
2023/10/04 12:24:26;;;;;;;15.30;3.80;;;20.10;74.50;;;;;;10491187;28;20023;-56
2023/10/04 12:29:27;;;;;;;12.93;3.58;;;20.20;75.00;;;;;;10460183;28;20032;-58
2023/10/04 12:34:29;;;;;;;13.40;3.63;;;20.20;74.80;;;;;;10472333;28;20044;-57
2023/10/04 12:39:38;;;;;;;16.63;4.82;;;20.20;74.80;;;;;;10490045;28;20035;-57
2023/10/04 12:44:41;;;;;;;12.43;4.03;;;20.20;75.00;;;;;;10460745;28;20028;-56
2023/10/04 12:49:43;;;;;;;16.38;4.97;;;20.20;75.10;;;;;;10487065;28;20040;-58
2023/10/04 12:54:43;;;;;;;17.73;4.90;;;20.30;74.90;;;;;;10490309;28;20048;-56
2023/10/04 12:59:45;;;;;;;12.57;4.38;;;20.20;75.30;;;;;;10481417;28;20037;-57
2023/10/04 13:04:49;;;;;;;23.08;4.90;;;20.20;75.60;;;;;;10489488;28;20383;-56
2023/10/04 13:09:50;;;;;;;29.33;6.45;;;20.20;75.40;;;;;;10490062;28;20605;-56
2023/10/04 13:14:52;;;;;;;15.02;4.35;;;20.30;74.80;;;;;;10489936;28;20102;-58
2023/10/04 13:19:53;;;;;;;23.35;6.00;;;20.50;74.40;;;;;;10490019;28;20040;-59
2023/10/04 13:24:53;;;;;;;16.50;4.85;;;20.40;74.50;;;;;;10489704;28;20043;-56
2023/10/04 13:29:54;;;;;;;17.88;4.72;;;20.30;75.10;;;;;;10497569;28;20029;-56
2023/10/04 13:34:55;;;;;;;13.45;4.65;;;20.30;75.50;;;;;;10497761;28;20540;-57
2023/10/04 13:39:56;;;;;;;17.67;5.30;;;20.20;75.60;;;;;;10463299;28;20051;-58
2023/10/04 13:44:57;;;;;;;19.02;4.40;;;20.10;75.60;;;;;;10497435;28;20027;-58
2023/10/04 13:49:58;;;;;;;15.98;4.28;;;20.10;75.50;;;;;;10497365;28;20048;-58
2023/10/04 13:54:59;;;;;;;17.63;4.20;;;20.10;75.40;;;;;;10479239;28;20039;-58
2023/10/04 14:00:00;;;;;;;11.77;4.03;;;20.00;75.30;;;;;;10470576;28;20032;-57
2023/10/04 14:05:01;;;;;;;13.02;4.22;;;20.00;75.40;;;;;;10495219;28;20035;-58
2023/10/04 14:10:03;;;;;;;11.55;3.35;;;19.90;75.50;;;;;;10477431;28;20115;-58
2023/10/04 14:15:10;;;;;;;14.30;5.03;;;19.90;75.50;;;;;;10495791;28;20411;-56
2023/10/04 14:20:13;;;;;;;14.85;3.30;;;19.90;75.50;;;;;;10495190;28;20388;-56
2023/10/04 14:25:14;;;;;;;9.10;3.30;;;19.90;75.50;;;;;;10494962;28;20107;-56
2023/10/04 14:30:21;;;;;;;9.95;4.03;;;19.90;75.40;;;;;;10495405;28;20074;-57
2023/10/04 14:35:23;;;;;;;11.63;4.60;;;19.90;75.50;;;;;;10494047;28;20036;-57
2023/10/04 14:40:27;;;;;;;8.05;3.33;;;19.80;75.50;;;;;;10493425;28;20154;-58
2023/10/04 14:45:28;;;;;;;6.28;3.03;;;19.80;75.60;;;;;;10493790;28;20024;-57
2023/10/04 14:50:31;;;;;;;11.20;3.08;;;19.80;75.60;;;;;;10494358;28;20403;-56
2023/10/04 14:55:32;;;;;;;6.90;3.28;;;19.80;75.50;;;;;;10493382;28;20036;-56
2023/10/04 15:00:33;;;;;;;9.02;3.05;;;19.80;75.40;;;;;;10493544;28;20028;-58
2023/10/04 15:05:34;;;;;;;15.88;5.18;;;19.80;75.40;;;;;;10492420;28;20024;-57
2023/10/04 15:10:35;;;;;;;7.28;3.08;;;19.80;75.40;;;;;;10493248;28;20368;-57
2023/10/04 15:15:36;;;;;;;6.88;2.92;;;19.80;75.40;;;;;;10492660;28;20056;-57
2023/10/04 15:20:37;;;;;;;13.50;3.38;;;19.80;75.40;;;;;;10492840;28;20085;-57
2023/10/04 15:25:40;;;;;;;9.43;3.10;;;19.80;75.40;;;;;;10491876;28;20504;-57
2023/10/04 15:30:41;;;;;;;8.25;3.13;;;19.80;75.40;;;;;;10491369;28;20043;-57
2023/10/04 15:35:42;;;;;;;11.07;4.57;;;19.70;75.30;;;;;;10481715;28;20037;-56
2023/10/04 15:40:43;;;;;;;14.07;3.72;;;19.70;75.10;;;;;;10492579;28;20025;-57
2023/10/04 15:45:46;;;;;;;11.25;2.80;;;19.80;75.20;;;;;;10491074;28;20020;-56
2023/10/04 15:50:47;;;;;;;8.20;2.83;;;19.90;75.30;;;;;;10460922;28;20039;-57
2023/10/04 15:55:48;;;;;;;12.98;5.00;;;19.90;75.40;;;;;;10491354;28;20387;-56
2023/10/04 16:00:49;;;;;;;11.88;3.60;;;20.10;76.00;;;;;;10490716;28;20028;-57
2023/10/04 16:05:49;;;;;;;46.47;22.23;;;20.20;75.90;;;;;;10491155;28;20036;-56
2023/10/04 16:10:50;;;;;;;16.40;7.30;;;20.10;75.50;;;;;;10462163;28;20028;-57
2023/10/04 16:15:51;;;;;;;20.70;6.25;;;20.00;74.90;;;;;;10491970;28;20048;-58
2023/10/04 16:20:52;;;;;;;14.95;6.55;;;20.00;73.20;;;;;;10490742;28;20399;-57
2023/10/04 16:25:54;;;;;;;11.20;4.03;;;20.10;75.00;;;;;;10494476;28;20044;-57
2023/10/04 16:30:57;;;;;;;16.38;5.45;;;20.20;75.30;;;;;;10490332;28;20488;-56
2023/10/04 16:35:58;;;;;;;22.15;6.38;;;20.20;75.30;;;;;;10489697;28;20391;-58
2023/10/04 16:40:58;;;;;;;18.10;5.55;;;20.20;75.30;;;;;;10495877;28;20028;-57
2023/10/04 16:45:59;;;;;;;16.75;5.38;;;20.20;75.70;;;;;;10489971;28;20468;-56
2023/10/04 16:51:00;;;;;;;17.45;6.20;;;20.20;75.40;;;;;;10472213;28;20043;-56
2023/10/04 16:56:00;;;;;;;17.83;4.63;;;20.20;75.60;;;;;;10490089;28;20506;-58
2023/10/04 17:01:01;;;;;;;13.85;4.97;;;20.20;75.60;;;;;;10490079;28;20028;-57
2023/10/04 17:06:02;;;;;;;10.40;5.65;;;20.20;75.90;;;;;;10498107;28;20036;-57
2023/10/04 17:11:04;;;;;;;12.35;4.97;;;20.10;76.30;;;;;;10510949;28;20036;-59
2023/10/04 17:16:04;;;;;;;17.50;5.13;;;20.00;76.20;;;;;;10480195;28;20254;-58
2023/10/04 17:21:05;;;;;;;13.45;4.65;;;20.00;76.30;;;;;;10486790;28;20036;-57
2023/10/04 17:26:08;;;;;;;22.25;5.03;;;19.90;76.40;;;;;;10477680;28;20021;-58
2023/10/04 17:31:09;;;;;;;14.18;3.80;;;19.90;76.40;;;;;;10486681;28;20025;-58
2023/10/04 17:36:09;;;;;;;13.18;5.25;;;19.90;76.40;;;;;;10492264;28;20062;-58
2023/10/04 17:41:15;;;;;;;15.18;4.60;;;19.90;76.50;;;;;;10499256;28;20031;-58
2023/10/04 17:46:16;;;;;;;17.25;4.50;;;19.90;76.60;;;;;;10480180;28;20488;-56
2023/10/04 17:51:16;;;;;;;16.67;4.03;;;19.90;76.20;;;;;;10485639;28;20028;-56
2023/10/04 17:56:17;;;;;;;12.52;4.70;;;19.90;76.50;;;;;;10487660;28;20024;-57
2023/10/04 18:01:18;;;;;;;14.43;4.45;;;19.80;76.40;;;;;;10471319;28;20033;-57
2023/10/04 18:06:19;;;;;;;14.18;4.63;;;19.80;76.40;;;;;;10483491;28;20042;-57
2023/10/04 18:11:24;;;;;;;12.05;4.22;;;19.80;76.40;;;;;;10478492;28;20102;-58
2023/10/04 18:16:25;;;;;;;10.88;3.47;;;19.80;76.50;;;;;;10465467;28;20351;-56
2023/10/04 18:21:25;;;;;;;14.60;3.45;;;19.80;76.40;;;;;;10478751;28;20025;-57
2023/10/04 18:26:26;;;;;;;17.77;3.75;;;19.80;76.30;;;;;;10480663;28;20339;-57
2023/10/04 18:31:27;;;;;;;13.95;3.88;;;19.80;76.20;;;;;;10473049;28;20028;-56
2023/10/04 18:36:28;;;;;;;15.70;4.97;;;19.80;76.20;;;;;;10490055;28;20020;-57
2023/10/04 18:41:30;;;;;;;14.45;4.20;;;19.80;76.50;;;;;;10477234;28;20036;-57
2023/10/04 18:46:31;;;;;;;13.75;4.22;;;19.70;76.40;;;;;;10490656;28;20070;-57
2023/10/04 18:51:33;;;;;;;16.45;4.63;;;19.80;76.40;;;;;;10470666;28;20063;-57
2023/10/04 18:56:34;;;;;;;10.68;3.42;;;19.80;76.40;;;;;;10471933;28;20024;-57
2023/10/04 19:01:35;;;;;;;7.93;3.60;;;19.70;76.40;;;;;;10468802;28;20028;-57
2023/10/04 19:06:36;;;;;;;10.93;4.25;;;19.80;76.50;;;;;;10472561;28;20043;-57
2023/10/04 19:11:37;;;;;;;7.88;2.92;;;19.70;76.60;;;;;;10479401;28;20032;-57
2023/10/04 19:16:39;;;;;;;10.40;3.00;;;19.80;76.60;;;;;;10490477;28;20036;-58
2023/10/04 19:21:40;;;;;;;8.38;2.72;;;19.80;76.60;;;;;;10485100;28;20480;-56
2023/10/04 19:26:44;;;;;;;10.10;4.13;;;19.80;76.60;;;;;;10479566;28;20266;-57
2023/10/04 19:31:45;;;;;;;9.60;3.10;;;19.70;76.50;;;;;;10481498;28;20028;-57
2023/10/04 19:36:46;;;;;;;6.40;2.72;;;19.80;76.60;;;;;;10493118;28;20449;-57
2023/10/04 19:41:47;;;;;;;9.10;3.45;;;19.80;77.30;;;;;;10489686;28;20032;-57
2023/10/04 19:46:47;;;;;;;7.82;2.40;;;19.70;76.90;;;;;;10491001;28;20140;-57
2023/10/04 19:51:48;;;;;;;9.68;2.92;;;19.70;76.90;;;;;;10489707;28;20537;-57
2023/10/04 19:56:49;;;;;;;6.20;2.85;;;19.70;76.90;;;;;;10474724;28;20025;-57
2023/10/04 20:01:52;;;;;;;7.00;2.30;;;19.70;76.90;;;;;;10491759;28;20480;-57
2023/10/04 20:06:53;;;;;;;5.90;2.83;;;19.60;76.90;;;;;;10474619;28;20036;-57
2023/10/04 20:11:54;;;;;;;12.02;2.65;;;19.60;76.90;;;;;;10490619;28;20051;-57
2023/10/04 20:16:56;;;;;;;7.65;2.83;;;19.60;76.90;;;;;;10491615;28;20040;-57
2023/10/04 20:21:57;;;;;;;5.47;2.50;;;19.60;76.80;;;;;;10491296;28;20044;-57
2023/10/04 20:26:58;;;;;;;10.77;2.80;;;19.60;76.80;;;;;;10491699;28;20039;-57
2023/10/04 20:31:59;;;;;;;5.90;2.50;;;19.60;76.80;;;;;;10500725;28;20039;-57
2023/10/04 20:37:00;;;;;;;9.95;2.85;;;19.50;76.80;;;;;;10490711;28;20035;-57
2023/10/04 20:42:03;;;;;;;5.47;2.92;;;19.60;76.80;;;;;;10472956;28;20474;-57
2023/10/04 20:47:04;;;;;;;6.75;2.17;;;19.50;76.80;;;;;;10491178;28;20028;-57
2023/10/04 20:52:05;;;;;;;5.20;2.55;;;19.50;76.80;;;;;;10491231;28;20423;-57
2023/10/04 20:57:07;;;;;;;6.50;3.33;;;19.50;76.70;;;;;;10491483;28;20032;-57
2023/10/04 21:02:07;;;;;;;6.20;2.58;;;19.50;76.70;;;;;;10490169;28;20021;-57
2023/10/04 21:07:09;;;;;;;4.78;2.10;;;19.50;77.30;;;;;;10490866;28;20377;-58
2023/10/04 21:12:10;;;;;;;3.45;2.10;;;19.50;76.80;;;;;;10490390;28;20024;-57
2023/10/04 21:17:11;;;;;;;5.63;2.42;;;19.50;76.80;;;;;;10472550;28;20036;-57
2023/10/04 21:22:12;;;;;;;5.93;2.58;;;19.50;76.80;;;;;;10489993;28;20029;-57
2023/10/04 21:27:22;;;;;;;4.60;2.13;;;19.50;76.80;;;;;;10490188;28;20031;-57
2023/10/04 21:32:28;;;;;;;5.53;2.00;;;19.50;76.80;;;;;;10490217;28;20104;-57
2023/10/04 21:37:35;;;;;;;4.93;2.00;;;19.50;76.80;;;;;;10488429;28;20021;-57
2023/10/04 21:42:35;;;;;;;5.30;2.00;;;19.50;76.70;;;;;;10489837;28;20169;-57
2023/10/04 21:47:46;;;;;;;6.82;2.05;;;19.40;76.70;;;;;;10498567;28;20122;-57
2023/10/04 21:52:47;;;;;;;6.18;2.17;;;19.40;76.70;;;;;;10481069;28;20033;-57
2023/10/04 21:57:51;;;;;;;5.00;2.05;;;19.40;76.70;;;;;;10493888;28;20423;-57
2023/10/04 22:02:55;;;;;;;6.25;2.20;;;19.40;76.60;;;;;;10491524;28;20487;-57
2023/10/04 22:07:58;;;;;;;5.13;1.98;;;19.40;76.60;;;;;;10497210;28;20495;-57
2023/10/04 22:13:01;;;;;;;15.65;3.17;;;19.40;76.70;;;;;;10496595;28;20024;-57
2023/10/04 22:18:02;;;;;;;5.25;2.25;;;19.40;76.70;;;;;;10453632;28;20041;-57
2023/10/04 22:23:02;;;;;;;4.40;1.73;;;19.40;76.60;;;;;;10454331;28;20056;-57
2023/10/04 22:28:04;;;;;;;6.10;2.67;;;19.40;76.60;;;;;;10454325;28;20028;-58
2023/10/04 22:33:08;;;;;;;4.85;1.80;;;19.40;76.60;;;;;;10455775;28;20083;-57
2023/10/04 22:38:10;;;;;;;5.50;2.78;;;19.40;76.60;;;;;;10454108;28;20025;-57
2023/10/04 22:43:12;;;;;;;4.13;1.88;;;19.40;76.60;;;;;;10453816;28;20508;-57
2023/10/04 22:48:12;;;;;;;3.53;1.92;;;19.40;76.60;;;;;;10454301;28;20039;-57
2023/10/04 22:53:14;;;;;;;4.25;1.90;;;19.40;76.60;;;;;;10452290;28;20125;-57
2023/10/04 22:58:15;;;;;;;3.67;1.55;;;19.40;76.60;;;;;;10447116;28;20063;-57
2023/10/04 23:03:16;;;;;;;3.20;1.92;;;19.30;76.50;;;;;;10451230;28;20037;-58
2023/10/04 23:08:17;;;;;;;5.55;2.55;;;19.30;76.50;;;;;;10453596;28;20819;-57
2023/10/04 23:13:21;;;;;;;4.25;1.98;;;19.30;76.60;;;;;;10452614;28;20029;-57
2023/10/04 23:23:27;;;;;;;4.13;2.13;;;19.30;76.50;;;;;;10452250;28;20033;-57
2023/10/04 23:28:28;;;;;;;4.22;2.05;;;19.30;76.50;;;;;;10452442;28;20029;-58
2023/10/04 23:33:32;;;;;;;3.45;2.10;;;19.30;76.40;;;;;;10451769;28;20651;-57
2023/10/04 23:43:43;;;;;;;3.45;1.58;;;19.30;76.40;;;;;;10451821;28;20684;-57
2023/10/04 23:48:50;;;;;;;3.38;1.63;;;19.30;76.50;;;;;;10451426;28;20491;-57
2023/10/04 23:54:06;;;;;;;4.57;2.28;;;19.30;76.50;;;;;;10451399;28;20037;-58
2023/10/04 23:59:07;;;;;;;3.83;1.75;;;19.30;76.40;;;;;;10442155;28;20047;-58
